KSPF/SPF METAR and TAF weather

Enter ICAO airport designator
Station Type Date Time Source
KSPF METAR 2022/01/18 06:55 UTC NOAA

KSPF 180655Z AUTO 27011G17KT 10SM CLR 10/M07 A2967 RMK AO2


Station Type Date Time Source
KSPF Decoded METAR 2022/01/18 06:55 UTC NOAA

Spearfish / Clyde Ice, SD, United States (KSPF) 44-29N 103-47W
Jan 18, 2022 - 01:55 AM EST / 2022.01.18 0655 UTC
Wind: from the W (270 degrees) at 13 MPH (11 KT) gusting to 20 MPH (17 KT):0
Visibility: 10 mile(s):0
Sky conditions: clear
Temperature: 50 F (10 C)
Dew Point: 19 F (-7 C)
Relative Humidity: 29%
Pressure (altimeter): 29.67 in. Hg (1004 hPa)
ob: KSPF 180655Z AUTO 27011G17KT 10SM CLR 10/M07 A2967 RMK AO2
cycle: 7

Station Type Date Time Source
KSPF TAF UTC NOAA

Error!

Example: see airport list